sensor_id;sensor_type;location;lat;lon;timestamp;pressure;altitude;pressure_sealevel;temperature;humidity
77889;BME280;67082;41.704;44.768;2023-07-08T00:00:28;95110.84;;;23.82;52.76
77889;BME280;67082;41.704;44.768;2023-07-08T00:03:17;95116.13;;;23.85;52.45
77889;BME280;67082;41.704;44.768;2023-07-08T00:05:47;95118.44;;;23.87;52.58
77889;BME280;67082;41.704;44.768;2023-07-08T00:08:16;95125.19;;;23.84;52.66
77889;BME280;67082;41.704;44.768;2023-07-08T00:10:48;95125.31;;;23.78;53.03
77889;BME280;67082;41.704;44.768;2023-07-08T00:13:16;95117.97;;;23.75;53.54
77889;BME280;67082;41.704;44.768;2023-07-08T00:15:48;95114.91;;;23.73;54.06
77889;BME280;67082;41.704;44.768;2023-07-08T00:18:17;95109.78;;;23.72;54.29
77889;BME280;67082;41.704;44.768;2023-07-08T00:20:48;95098.63;;;23.66;52.88
77889;BME280;67082;41.704;44.768;2023-07-08T00:23:17;95095.78;;;23.66;53.23
77889;BME280;67082;41.704;44.768;2023-07-08T00:25:50;95106.00;;;23.69;52.43
77889;BME280;67082;41.704;44.768;2023-07-08T00:28:20;95099.59;;;23.69;52.95
77889;BME280;67082;41.704;44.768;2023-07-08T00:30:55;95097.31;;;23.67;52.50
77889;BME280;67082;41.704;44.768;2023-07-08T00:33:25;95097.72;;;23.71;53.23
77889;BME280;67082;41.704;44.768;2023-07-08T00:35:54;95105.25;;;23.69;53.15
77889;BME280;67082;41.704;44.768;2023-07-08T00:38:25;95104.81;;;23.65;54.13
77889;BME280;67082;41.704;44.768;2023-07-08T00:51:39;95107.53;;;23.70;52.93
77889;BME280;67082;41.704;44.768;2023-07-08T00:54:11;95103.38;;;23.71;52.78
77889;BME280;67082;41.704;44.768;2023-07-08T00:56:43;95110.91;;;23.69;52.97
77889;BME280;67082;41.704;44.768;2023-07-08T00:59:18;95108.28;;;23.71;51.93
77889;BME280;67082;41.704;44.768;2023-07-08T01:01:48;95104.19;;;23.79;51.87
77889;BME280;67082;41.704;44.768;2023-07-08T01:04:22;95103.13;;;23.82;52.12
77889;BME280;67082;41.704;44.768;2023-07-08T01:06:55;95112.25;;;23.88;51.75
77889;BME280;67082;41.704;44.768;2023-07-08T01:09:31;95109.63;;;23.90;51.64
77889;BME280;67082;41.704;44.768;2023-07-08T01:12:04;95102.44;;;23.89;52.00
77889;BME280;67082;41.704;44.768;2023-07-08T01:14:36;95100.22;;;23.95;51.89
77889;BME280;67082;41.704;44.768;2023-07-08T01:17:05;95101.53;;;23.94;51.67
77889;BME280;67082;41.704;44.768;2023-07-08T01:19:34;95117.56;;;23.92;52.87
77889;BME280;67082;41.704;44.768;2023-07-08T01:22:04;95122.44;;;23.91;53.45
77889;BME280;67082;41.704;44.768;2023-07-08T01:24:36;95119.75;;;23.86;53.81
77889;BME280;67082;41.704;44.768;2023-07-08T01:27:09;95119.41;;;23.89;53.37
77889;BME280;67082;41.704;44.768;2023-07-08T01:29:38;95125.69;;;23.95;52.87
77889;BME280;67082;41.704;44.768;2023-07-08T01:32:13;95122.50;;;23.99;52.20
77889;BME280;67082;41.704;44.768;2023-07-08T01:34:46;95120.22;;;23.97;53.25
77889;BME280;67082;41.704;44.768;2023-07-08T01:37:43;95127.00;;;23.94;55.49
77889;BME280;67082;41.704;44.768;2023-07-08T01:42:47;95140.03;;;23.77;57.91
77889;BME280;67082;41.704;44.768;2023-07-08T01:45:19;95151.59;;;23.66;58.71
77889;BME280;67082;41.704;44.768;2023-07-08T01:48:11;95143.88;;;23.66;57.79
77889;BME280;67082;41.704;44.768;2023-07-08T01:51:08;95142.56;;;23.67;57.02
77889;BME280;67082;41.704;44.768;2023-07-08T01:53:40;95145.28;;;23.73;56.92
77889;BME280;67082;41.704;44.768;2023-07-08T01:56:10;95151.47;;;23.71;56.80
77889;BME280;67082;41.704;44.768;2023-07-08T01:58:39;95157.34;;;23.73;56.41
77889;BME280;67082;41.704;44.768;2023-07-08T02:01:08;95155.84;;;23.72;56.82
77889;BME280;67082;41.704;44.768;2023-07-08T02:03:37;95154.78;;;23.62;57.45
77889;BME280;67082;41.704;44.768;2023-07-08T02:06:07;95153.41;;;23.56;57.85
77889;BME280;67082;41.704;44.768;2023-07-08T02:08:35;95156.69;;;23.47;58.48
77889;BME280;67082;41.704;44.768;2023-07-08T02:11:03;95161.13;;;23.55;57.96
77889;BME280;67082;41.704;44.768;2023-07-08T02:13:31;95154.06;;;23.49;57.61
77889;BME280;67082;41.704;44.768;2023-07-08T02:16:02;95168.78;;;23.47;58.24
77889;BME280;67082;41.704;44.768;2023-07-08T02:18:30;95180.28;;;23.49;56.73
77889;BME280;67082;41.704;44.768;2023-07-08T02:21:00;95159.81;;;23.56;56.05
77889;BME280;67082;41.704;44.768;2023-07-08T02:23:28;95157.59;;;23.62;56.45
77889;BME280;67082;41.704;44.768;2023-07-08T02:25:59;95170.22;;;23.61;56.13
77889;BME280;67082;41.704;44.768;2023-07-08T02:28:28;95172.72;;;23.65;55.35
77889;BME280;67082;41.704;44.768;2023-07-08T02:31:01;95176.53;;;23.67;55.94
77889;BME280;67082;41.704;44.768;2023-07-08T02:33:30;95168.91;;;23.62;55.94
77889;BME280;67082;41.704;44.768;2023-07-08T02:36:00;95170.44;;;23.63;55.71
77889;BME280;67082;41.704;44.768;2023-07-08T02:38:29;95166.53;;;23.66;55.11
77889;BME280;67082;41.704;44.768;2023-07-08T02:40:58;95174.75;;;23.77;55.10
77889;BME280;67082;41.704;44.768;2023-07-08T02:43:27;95171.38;;;23.79;55.93
77889;BME280;67082;41.704;44.768;2023-07-08T02:45:55;95174.06;;;23.84;55.00
77889;BME280;67082;41.704;44.768;2023-07-08T02:48:23;95173.38;;;23.91;55.29
77889;BME280;67082;41.704;44.768;2023-07-08T02:50:58;95166.28;;;23.98;55.05
77889;BME280;67082;41.704;44.768;2023-07-08T02:53:29;95178.06;;;24.09;55.27
77889;BME280;67082;41.704;44.768;2023-07-08T02:55:57;95173.25;;;24.17;55.94
77889;BME280;67082;41.704;44.768;2023-07-08T02:58:25;95170.34;;;24.30;54.83
77889;BME280;67082;41.704;44.768;2023-07-08T03:00:54;95169.25;;;24.89;54.05
77889;BME280;67082;41.704;44.768;2023-07-08T03:03:23;95165.66;;;25.24;54.22
77889;BME280;67082;41.704;44.768;2023-07-08T03:05:56;95168.03;;;25.56;51.89
77889;BME280;67082;41.704;44.768;2023-07-08T03:08:25;95163.94;;;25.79;50.08
77889;BME280;67082;41.704;44.768;2023-07-08T03:10:58;95165.84;;;25.84;49.84
77889;BME280;67082;41.704;44.768;2023-07-08T03:13:28;95157.59;;;26.09;50.19
77889;BME280;67082;41.704;44.768;2023-07-08T03:15:58;95159.66;;;26.38;49.96
77889;BME280;67082;41.704;44.768;2023-07-08T03:18:28;95154.19;;;26.55;48.37
77889;BME280;67082;41.704;44.768;2023-07-08T03:20:57;95148.09;;;26.51;48.63
77889;BME280;67082;41.704;44.768;2023-07-08T03:23:27;95152.84;;;26.41;49.20
77889;BME280;67082;41.704;44.768;2023-07-08T03:25:56;95154.19;;;26.55;48.83
77889;BME280;67082;41.704;44.768;2023-07-08T03:28:24;95157.56;;;26.76;48.62
77889;BME280;67082;41.704;44.768;2023-07-08T03:30:53;95156.41;;;26.79;47.84
77889;BME280;67082;41.704;44.768;2023-07-08T03:33:23;95161.38;;;26.56;47.69
77889;BME280;67082;41.704;44.768;2023-07-08T03:35:51;95161.38;;;26.41;47.76
77889;BME280;67082;41.704;44.768;2023-07-08T03:38:19;95150.00;;;26.41;47.39
77889;BME280;67082;41.704;44.768;2023-07-08T03:40:48;95156.47;;;26.34;47.81
77889;BME280;67082;41.704;44.768;2023-07-08T03:43:16;95150.34;;;26.45;46.98
77889;BME280;67082;41.704;44.768;2023-07-08T03:45:45;95137.50;;;26.59;46.56
77889;BME280;67082;41.704;44.768;2023-07-08T03:48:15;95139.94;;;26.48;46.96
77889;BME280;67082;41.704;44.768;2023-07-08T03:50:44;95141.09;;;26.52;46.89
77889;BME280;67082;41.704;44.768;2023-07-08T03:53:12;95140.16;;;26.35;46.84
77889;BME280;67082;41.704;44.768;2023-07-08T03:55:41;95141.47;;;26.64;46.75
77889;BME280;67082;41.704;44.768;2023-07-08T03:58:09;95134.81;;;26.76;46.61
77889;BME280;67082;41.704;44.768;2023-07-08T04:00:37;95137.03;;;27.00;46.14
77889;BME280;67082;41.704;44.768;2023-07-08T04:03:09;95139.28;;;27.09;45.78
77889;BME280;67082;41.704;44.768;2023-07-08T04:05:39;95141.19;;;26.99;46.21
77889;BME280;67082;41.704;44.768;2023-07-08T04:08:07;95138.53;;;27.01;46.03
77889;BME280;67082;41.704;44.768;2023-07-08T04:10:35;95143.09;;;27.04;46.15
77889;BME280;67082;41.704;44.768;2023-07-08T04:13:03;95141.13;;;27.14;46.31
77889;BME280;67082;41.704;44.768;2023-07-08T04:15:31;95141.91;;;27.22;45.56
77889;BME280;67082;41.704;44.768;2023-07-08T04:17:59;95145.69;;;27.25;45.68
77889;BME280;67082;41.704;44.768;2023-07-08T04:20:29;95148.03;;;27.51;45.39
77889;BME280;67082;41.704;44.768;2023-07-08T04:22:57;95151.53;;;27.66;45.17
77889;BME280;67082;41.704;44.768;2023-07-08T04:25:25;95153.00;;;27.82;44.53
77889;BME280;67082;41.704;44.768;2023-07-08T04:27:56;95144.59;;;27.92;44.80
77889;BME280;67082;41.704;44.768;2023-07-08T04:30:25;95138.22;;;28.08;45.15
77889;BME280;67082;41.704;44.768;2023-07-08T04:32:56;95140.88;;;28.06;44.89
77889;BME280;67082;41.704;44.768;2023-07-08T04:35:24;95134.56;;;27.83;44.79
77889;BME280;67082;41.704;44.768;2023-07-08T04:37:53;95134.72;;;27.93;45.41
77889;BME280;67082;41.704;44.768;2023-07-08T04:40:22;95133.28;;;27.84;45.98
77889;BME280;67082;41.704;44.768;2023-07-08T04:42:50;95130.19;;;27.58;46.19
77889;BME280;67082;41.704;44.768;2023-07-08T04:45:19;95126.72;;;27.59;45.95
77889;BME280;67082;41.704;44.768;2023-07-08T04:47:48;95124.00;;;27.37;45.64
77889;BME280;67082;41.704;44.768;2023-07-08T04:50:21;95121.75;;;27.35;45.85
77889;BME280;67082;41.704;44.768;2023-07-08T04:52:49;95113.84;;;27.26;46.61
77889;BME280;67082;41.704;44.768;2023-07-08T04:55:18;95116.63;;;27.34;46.34
77889;BME280;67082;41.704;44.768;2023-07-08T04:57:46;95117.63;;;27.21;46.71
77889;BME280;67082;41.704;44.768;2023-07-08T05:00:16;95113.78;;;27.34;46.96
77889;BME280;67082;41.704;44.768;2023-07-08T05:02:45;95115.06;;;27.40;46.61
77889;BME280;67082;41.704;44.768;2023-07-08T05:05:15;95109.97;;;27.39;46.55
77889;BME280;67082;41.704;44.768;2023-07-08T05:07:43;95117.44;;;27.59;46.39
77889;BME280;67082;41.704;44.768;2023-07-08T05:10:11;95105.53;;;27.85;45.91
77889;BME280;67082;41.704;44.768;2023-07-08T05:12:41;95101.66;;;27.97;46.13
77889;BME280;67082;41.704;44.768;2023-07-08T05:15:09;95098.22;;;27.99;46.22
77889;BME280;67082;41.704;44.768;2023-07-08T05:17:38;95102.22;;;28.20;45.59
77889;BME280;67082;41.704;44.768;2023-07-08T05:20:09;95101.13;;;28.16;45.56
77889;BME280;67082;41.704;44.768;2023-07-08T05:22:39;95088.09;;;28.05;46.36
77889;BME280;67082;41.704;44.768;2023-07-08T05:25:08;95088.34;;;28.00;46.79
77889;BME280;67082;41.704;44.768;2023-07-08T05:27:37;95082.22;;;28.03;47.44
77889;BME280;67082;41.704;44.768;2023-07-08T05:30:06;95085.13;;;28.20;47.76
77889;BME280;67082;41.704;44.768;2023-07-08T05:32:35;95069.47;;;28.28;48.56
77889;BME280;67082;41.704;44.768;2023-07-08T05:35:03;95083.47;;;28.34;48.21
77889;BME280;67082;41.704;44.768;2023-07-08T05:37:32;95079.69;;;28.31;48.82
77889;BME280;67082;41.704;44.768;2023-07-08T05:39:59;95071.41;;;28.26;48.44
77889;BME280;67082;41.704;44.768;2023-07-08T05:42:32;95068.09;;;28.37;47.80
77889;BME280;67082;41.704;44.768;2023-07-08T05:45:00;95066.75;;;28.38;48.75
77889;BME280;67082;41.704;44.768;2023-07-08T05:47:30;95067.84;;;28.42;47.38
77889;BME280;67082;41.704;44.768;2023-07-08T05:49:58;95068.25;;;28.39;47.60
77889;BME280;67082;41.704;44.768;2023-07-08T05:52:27;95063.75;;;28.53;47.22
77889;BME280;67082;41.704;44.768;2023-07-08T05:54:55;95062.91;;;28.43;47.82
77889;BME280;67082;41.704;44.768;2023-07-08T05:57:24;95065.25;;;28.37;48.06
77889;BME280;67082;41.704;44.768;2023-07-08T05:59:52;95057.16;;;28.26;48.45
77889;BME280;67082;41.704;44.768;2023-07-08T06:02:20;95061.97;;;28.41;47.93
77889;BME280;67082;41.704;44.768;2023-07-08T06:04:53;95059.13;;;28.41;48.37
77889;BME280;67082;41.704;44.768;2023-07-08T06:07:21;95060.50;;;28.32;48.56
77889;BME280;67082;41.704;44.768;2023-07-08T06:09:49;95044.44;;;28.44;48.53
77889;BME280;67082;41.704;44.768;2023-07-08T06:12:19;95060.47;;;28.40;48.21
77889;BME280;67082;41.704;44.768;2023-07-08T06:14:47;95051.00;;;28.54;48.32
77889;BME280;67082;41.704;44.768;2023-07-08T06:17:16;95061.16;;;28.64;48.47
77889;BME280;67082;41.704;44.768;2023-07-08T06:19:44;95046.03;;;28.54;48.06
77889;BME280;67082;41.704;44.768;2023-07-08T06:22:13;95050.00;;;28.42;48.56
77889;BME280;67082;41.704;44.768;2023-07-08T06:24:46;95053.34;;;28.48;48.40
77889;BME280;67082;41.704;44.768;2023-07-08T06:27:15;95056.38;;;28.50;46.76
77889;BME280;67082;41.704;44.768;2023-07-08T06:29:44;95052.34;;;28.53;45.61
77889;BME280;67082;41.704;44.768;2023-07-08T06:32:13;95048.66;;;28.60;44.99
77889;BME280;67082;41.704;44.768;2023-07-08T06:34:41;95043.63;;;28.68;45.46
77889;BME280;67082;41.704;44.768;2023-07-08T06:37:09;95038.50;;;28.66;45.82
77889;BME280;67082;41.704;44.768;2023-07-08T06:39:37;95045.22;;;28.62;45.01
77889;BME280;67082;41.704;44.768;2023-07-08T06:42:09;95040.03;;;28.67;45.02
77889;BME280;67082;41.704;44.768;2023-07-08T06:44:43;95042.38;;;28.62;44.57
77889;BME280;67082;41.704;44.768;2023-07-08T06:47:25;95043.69;;;28.60;44.52
77889;BME280;67082;41.704;44.768;2023-07-08T06:49:53;95041.59;;;28.44;43.85
77889;BME280;67082;41.704;44.768;2023-07-08T06:52:25;95040.34;;;28.54;44.17
77889;BME280;67082;41.704;44.768;2023-07-08T06:54:53;95026.94;;;28.64;44.02
77889;BME280;67082;41.704;44.768;2023-07-08T06:57:22;95030.13;;;28.68;44.42
77889;BME280;67082;41.704;44.768;2023-07-08T06:59:50;95025.66;;;28.75;45.77
77889;BME280;67082;41.704;44.768;2023-07-08T07:02:18;95017.28;;;28.77;45.40
77889;BME280;67082;41.704;44.768;2023-07-08T07:04:47;95004.59;;;28.87;44.61
77889;BME280;67082;41.704;44.768;2023-07-08T07:07:16;95006.09;;;28.88;44.51
77889;BME280;67082;41.704;44.768;2023-07-08T07:09:44;95009.03;;;28.98;44.77
77889;BME280;67082;41.704;44.768;2023-07-08T07:12:12;94993.88;;;28.95;40.38
77889;BME280;67082;41.704;44.768;2023-07-08T07:14:40;94995.69;;;29.00;40.58
77889;BME280;67082;41.704;44.768;2023-07-08T07:17:12;94999.81;;;29.07;41.36
77889;BME280;67082;41.704;44.768;2023-07-08T07:19:40;94980.00;;;29.09;39.44
77889;BME280;67082;41.704;44.768;2023-07-08T07:22:09;94987.75;;;28.99;41.12
77889;BME280;67082;41.704;44.768;2023-07-08T07:24:37;94989.91;;;28.91;40.51
77889;BME280;67082;41.704;44.768;2023-07-08T07:27:06;94985.06;;;29.01;39.67
77889;BME280;67082;41.704;44.768;2023-07-08T07:29:48;94978.66;;;29.10;39.23
77889;BME280;67082;41.704;44.768;2023-07-08T07:32:19;94975.25;;;29.21;38.03
77889;BME280;67082;41.704;44.768;2023-07-08T07:34:50;94977.41;;;29.30;38.99
77889;BME280;67082;41.704;44.768;2023-07-08T07:37:20;94972.81;;;29.44;39.24
77889;BME280;67082;41.704;44.768;2023-07-08T07:39:49;94963.41;;;29.51;38.25
77889;BME280;67082;41.704;44.768;2023-07-08T07:42:22;94965.56;;;29.60;36.98
77889;BME280;67082;41.704;44.768;2023-07-08T07:44:50;94958.66;;;29.63;37.46
77889;BME280;67082;41.704;44.768;2023-07-08T07:47:19;94966.31;;;29.60;36.65
77889;BME280;67082;41.704;44.768;2023-07-08T07:49:47;94953.56;;;29.71;37.46
77889;BME280;67082;41.704;44.768;2023-07-08T07:52:16;94953.00;;;29.82;37.59
77889;BME280;67082;41.704;44.768;2023-07-08T07:54:46;94949.84;;;29.87;37.73
77889;BME280;67082;41.704;44.768;2023-07-08T07:57:14;94943.41;;;29.87;37.00
77889;BME280;67082;41.704;44.768;2023-07-08T07:59:43;94937.69;;;29.96;36.58
77889;BME280;67082;41.704;44.768;2023-07-08T08:02:12;94941.16;;;29.95;36.21
77889;BME280;67082;41.704;44.768;2023-07-08T08:04:40;94942.97;;;29.90;35.68
77889;BME280;67082;41.704;44.768;2023-07-08T08:07:08;94949.84;;;29.87;36.34
77889;BME280;67082;41.704;44.768;2023-07-08T08:09:37;94954.25;;;29.88;35.87
77889;BME280;67082;41.704;44.768;2023-07-08T08:12:09;94955.44;;;29.95;36.00
77889;BME280;67082;41.704;44.768;2023-07-08T08:14:38;94956.66;;;29.92;36.16
77889;BME280;67082;41.704;44.768;2023-07-08T08:17:07;94955.88;;;29.91;38.40
77889;BME280;67082;41.704;44.768;2023-07-08T08:19:35;94947.91;;;29.90;42.24
77889;BME280;67082;41.704;44.768;2023-07-08T08:22:04;94947.78;;;29.97;41.05
77889;BME280;67082;41.704;44.768;2023-07-08T08:24:33;94939.66;;;30.03;43.46
77889;BME280;67082;41.704;44.768;2023-07-08T08:27:01;94927.19;;;30.08;35.32
77889;BME280;67082;41.704;44.768;2023-07-08T08:29:29;94915.19;;;30.10;38.40
77889;BME280;67082;41.704;44.768;2023-07-08T08:31:58;94920.31;;;30.21;36.18
77889;BME280;67082;41.704;44.768;2023-07-08T08:34:26;94916.41;;;30.26;32.84
77889;BME280;67082;41.704;44.768;2023-07-08T08:36:54;94908.88;;;30.40;32.92
77889;BME280;67082;41.704;44.768;2023-07-08T08:39:23;94907.06;;;30.35;31.89
77889;BME280;67082;41.704;44.768;2023-07-08T08:41:54;94906.03;;;30.40;33.63
77889;BME280;67082;41.704;44.768;2023-07-08T08:44:32;94910.56;;;30.43;32.95
77889;BME280;67082;41.704;44.768;2023-07-08T08:47:25;94899.13;;;30.43;32.39
77889;BME280;67082;41.704;44.768;2023-07-08T08:52:57;94906.78;;;30.31;32.35
77889;BME280;67082;41.704;44.768;2023-07-08T08:55:27;94898.81;;;30.29;33.26
77889;BME280;67082;41.704;44.768;2023-07-08T08:57:59;94891.28;;;30.34;33.08
77889;BME280;67082;41.704;44.768;2023-07-08T09:03:17;94879.84;;;30.24;33.34
77889;BME280;67082;41.704;44.768;2023-07-08T09:05:46;94881.66;;;30.29;33.94
77889;BME280;67082;41.704;44.768;2023-07-08T09:08:23;94866.31;;;30.34;33.95
77889;BME280;67082;41.704;44.768;2023-07-08T09:11:03;94870.66;;;30.45;34.49
77889;BME280;67082;41.704;44.768;2023-07-08T09:13:38;94862.22;;;30.47;35.18
77889;BME280;67082;41.704;44.768;2023-07-08T09:19:26;94863.59;;;30.46;34.41
77889;BME280;67082;41.704;44.768;2023-07-08T09:22:04;94861.50;;;30.46;34.84
77889;BME280;67082;41.704;44.768;2023-07-08T09:25:00;94865.84;;;30.47;33.97
77889;BME280;67082;41.704;44.768;2023-07-08T09:27:30;94865.97;;;30.49;34.89
77889;BME280;67082;41.704;44.768;2023-07-08T09:29:59;94863.09;;;30.59;34.04
77889;BME280;67082;41.704;44.768;2023-07-08T09:32:31;94871.41;;;30.64;33.75
77889;BME280;67082;41.704;44.768;2023-07-08T09:35:05;94871.56;;;30.66;34.14
77889;BME280;67082;41.704;44.768;2023-07-08T09:37:35;94873.50;;;30.64;33.79
77889;BME280;67082;41.704;44.768;2023-07-08T09:40:31;94864.63;;;30.60;33.69
77889;BME280;67082;41.704;44.768;2023-07-08T09:45:47;94850.81;;;30.66;34.03
77889;BME280;67082;41.704;44.768;2023-07-08T09:48:27;94846.41;;;30.55;34.53
77889;BME280;67082;41.704;44.768;2023-07-08T09:50:57;94841.03;;;30.40;34.67
77889;BME280;67082;41.704;44.768;2023-07-08T09:53:30;94849.63;;;30.31;34.49
77889;BME280;67082;41.704;44.768;2023-07-08T09:56:00;94842.53;;;30.13;36.42
77889;BME280;67082;41.704;44.768;2023-07-08T09:58:34;94862.97;;;29.90;41.08
77889;BME280;67082;41.704;44.768;2023-07-08T10:01:21;94882.59;;;29.58;44.02
77889;BME280;67082;41.704;44.768;2023-07-08T10:03:50;94873.16;;;29.29;49.14
77889;BME280;67082;41.704;44.768;2023-07-08T10:06:26;94868.84;;;29.02;51.45
77889;BME280;67082;41.704;44.768;2023-07-08T10:08:55;94867.50;;;28.76;52.02
77889;BME280;67082;41.704;44.768;2023-07-08T10:11:32;94866.72;;;28.49;54.25
77889;BME280;67082;41.704;44.768;2023-07-08T10:14:46;94870.25;;;28.66;53.32
77889;BME280;67082;41.704;44.768;2023-07-08T10:16:55;94860.59;;;28.79;53.51
77889;BME280;67082;41.704;44.768;2023-07-08T10:19:23;94861.31;;;28.97;52.96
77889;BME280;67082;41.704;44.768;2023-07-08T10:30:22;94848.28;;;29.48;48.26
77889;BME280;67082;41.704;44.768;2023-07-08T10:40:59;94822.03;;;29.59;44.78
77889;BME280;67082;41.704;44.768;2023-07-08T10:46:30;94824.59;;;29.65;42.82
77889;BME280;67082;41.704;44.768;2023-07-08T10:56:40;94808.81;;;29.83;39.24
77889;BME280;67082;41.704;44.768;2023-07-08T11:07:27;94797.41;;;29.83;36.75
77889;BME280;67082;41.704;44.768;2023-07-08T11:10:02;94790.50;;;29.86;37.88
77889;BME280;67082;41.704;44.768;2023-07-08T11:12:48;94792.13;;;29.89;37.38
77889;BME280;67082;41.704;44.768;2023-07-08T11:15:22;94787.78;;;29.88;37.03
77889;BME280;67082;41.704;44.768;2023-07-08T11:21:07;94777.09;;;29.98;37.19
77889;BME280;67082;41.704;44.768;2023-07-08T11:28:48;94772.31;;;30.10;36.29
77889;BME280;67082;41.704;44.768;2023-07-08T11:31:18;94764.78;;;30.14;36.79
77889;BME280;67082;41.704;44.768;2023-07-08T11:33:46;94763.41;;;30.15;36.62
77889;BME280;67082;41.704;44.768;2023-07-08T11:36:16;94758.47;;;30.16;36.28
77889;BME280;67082;41.704;44.768;2023-07-08T11:38:49;94755.13;;;30.19;35.04
77889;BME280;67082;41.704;44.768;2023-07-08T11:41:20;94751.97;;;30.25;35.99
77889;BME280;67082;41.704;44.768;2023-07-08T11:43:52;94748.38;;;30.24;36.94
77889;BME280;67082;41.704;44.768;2023-07-08T11:46:32;94757.97;;;30.29;35.26
77889;BME280;67082;41.704;44.768;2023-07-08T11:49:04;94750.75;;;30.28;35.28
77889;BME280;67082;41.704;44.768;2023-07-08T11:51:38;94753.16;;;30.31;34.40
77889;BME280;67082;41.704;44.768;2023-07-08T11:54:13;94746.41;;;30.27;35.02
77889;BME280;67082;41.704;44.768;2023-07-08T11:56:58;94727.59;;;30.24;35.40
77889;BME280;67082;41.704;44.768;2023-07-08T11:59:37;94741.88;;;30.24;34.87
77889;BME280;67082;41.704;44.768;2023-07-08T12:02:17;94725.50;;;30.24;33.93
77889;BME280;67082;41.704;44.768;2023-07-08T12:05:12;94726.69;;;30.31;35.15
77889;BME280;67082;41.704;44.768;2023-07-08T12:07:55;94713.91;;;30.32;34.79
77889;BME280;67082;41.704;44.768;2023-07-08T12:10:36;94716.28;;;30.35;34.88
77889;BME280;67082;41.704;44.768;2023-07-08T12:13:15;94709.06;;;30.34;34.67
77889;BME280;67082;41.704;44.768;2023-07-08T12:15:45;94700.78;;;30.38;34.15
77889;BME280;67082;41.704;44.768;2023-07-08T12:18:19;94701.53;;;30.39;34.67
77889;BME280;67082;41.704;44.768;2023-07-08T12:20:56;94699.44;;;30.39;34.67
77889;BME280;67082;41.704;44.768;2023-07-08T12:23:27;94693.41;;;30.35;34.70
77889;BME280;67082;41.704;44.768;2023-07-08T12:25:57;94693.41;;;30.35;35.12
77889;BME280;67082;41.704;44.768;2023-07-08T12:28:28;94688.44;;;30.36;34.99
77889;BME280;67082;41.704;44.768;2023-07-08T12:30:56;94700.03;;;30.38;35.11
77889;BME280;67082;41.704;44.768;2023-07-08T12:33:30;94692.34;;;30.40;34.58
77889;BME280;67082;41.704;44.768;2023-07-08T12:36:01;94688.59;;;30.38;35.35
77889;BME280;67082;41.704;44.768;2023-07-08T12:41:21;94673.84;;;30.41;36.02
77889;BME280;67082;41.704;44.768;2023-07-08T12:43:51;94674.25;;;30.47;35.49
77889;BME280;67082;41.704;44.768;2023-07-08T12:46:22;94675.03;;;30.48;35.54
77889;BME280;67082;41.704;44.768;2023-07-08T12:48:50;94675.28;;;30.52;34.03
77889;BME280;67082;41.704;44.768;2023-07-08T12:51:25;94668.84;;;30.51;34.61
77889;BME280;67082;41.704;44.768;2023-07-08T12:53:54;94670.94;;;30.51;34.78
77889;BME280;67082;41.704;44.768;2023-07-08T12:56:24;94668.50;;;30.57;35.16
77889;BME280;67082;41.704;44.768;2023-07-08T12:58:55;94678.31;;;30.54;36.11
77889;BME280;67082;41.704;44.768;2023-07-08T13:04:35;94676.13;;;30.64;35.59
77889;BME280;67082;41.704;44.768;2023-07-08T13:07:28;94671.34;;;30.66;35.75
77889;BME280;67082;41.704;44.768;2023-07-08T13:10:02;94669.06;;;30.65;35.56
77889;BME280;67082;41.704;44.768;2023-07-08T13:12:34;94671.94;;;30.65;34.57
77889;BME280;67082;41.704;44.768;2023-07-08T13:15:13;94676.00;;;30.62;35.46
77889;BME280;67082;41.704;44.768;2023-07-08T13:17:46;94669.56;;;30.52;35.79
77889;BME280;67082;41.704;44.768;2023-07-08T13:20:16;94676.78;;;30.53;35.28
77889;BME280;67082;41.704;44.768;2023-07-08T13:22:51;94675.03;;;30.48;35.37
77889;BME280;67082;41.704;44.768;2023-07-08T13:29:09;94672.00;;;30.46;36.03
77889;BME280;67082;41.704;44.768;2023-07-08T13:39:15;94708.63;;;30.38;36.36
77889;BME280;67082;41.704;44.768;2023-07-08T13:41:47;94711.00;;;30.41;37.30
77889;BME280;67082;41.704;44.768;2023-07-08T13:44:16;94706.50;;;30.38;37.40
77889;BME280;67082;41.704;44.768;2023-07-08T13:46:52;94712.66;;;30.35;37.42
77889;BME280;67082;41.704;44.768;2023-07-08T13:52:16;94734.66;;;30.23;38.31
77889;BME280;67082;41.704;44.768;2023-07-08T13:54:57;94733.50;;;30.16;38.58
77889;BME280;67082;41.704;44.768;2023-07-08T13:57:44;94733.03;;;30.10;38.98
77889;BME280;67082;41.704;44.768;2023-07-08T14:00:12;94729.44;;;30.10;38.36
77889;BME280;67082;41.704;44.768;2023-07-08T14:02:44;94729.88;;;30.06;38.21
77889;BME280;67082;41.704;44.768;2023-07-08T14:05:13;94717.69;;;30.06;38.44
77889;BME280;67082;41.704;44.768;2023-07-08T14:07:43;94721.59;;;30.01;38.98
77889;BME280;67082;41.704;44.768;2023-07-08T14:10:13;94723.28;;;29.94;39.47
77889;BME280;67082;41.704;44.768;2023-07-08T14:12:41;94726.28;;;29.87;40.03
77889;BME280;67082;41.704;44.768;2023-07-08T14:15:10;94725.97;;;29.83;40.08
77889;BME280;67082;41.704;44.768;2023-07-08T14:17:38;94719.69;;;29.75;40.30
77889;BME280;67082;41.704;44.768;2023-07-08T14:20:12;94727.81;;;29.69;41.06
77889;BME280;67082;41.704;44.768;2023-07-08T14:22:43;94729.31;;;29.60;40.05
77889;BME280;67082;41.704;44.768;2023-07-08T14:25:13;94730.78;;;29.52;40.08
77889;BME280;67082;41.704;44.768;2023-07-08T14:27:43;94740.38;;;29.47;40.43
77889;BME280;67082;41.704;44.768;2023-07-08T14:30:12;94750.75;;;29.42;40.90
77889;BME280;67082;41.704;44.768;2023-07-08T14:32:40;94758.09;;;29.36;40.30
77889;BME280;67082;41.704;44.768;2023-07-08T14:35:20;94759.59;;;29.27;40.48
77889;BME280;67082;41.704;44.768;2023-07-08T14:37:51;94769.94;;;29.23;39.86
77889;BME280;67082;41.704;44.768;2023-07-08T14:43:34;94781.78;;;29.10;40.25